METAR Data
IDs: Format: Raw Decoded Include TAF

Data at: 1513 UTC 16 Feb 2019

METAR for:KMWO (Middletown/Hook Fld, OH, US)
Text:KMWO 161455Z AUTO 05008KT 10SM OVC017 M04/M08 A3009 RMK AO2 T10401083
Temperature: -4.0°C ( 25°F)
Dewpoint: -8.3°C ( 17°F) [RH = 72%]
Pressure (altimeter):30.09 inches Hg (1019.0 mb)
Winds:from the NE (50 degrees) at 9 MPH (8 knots; 4.1 m/s)
Visibility:10 or more sm (16+ km)
Ceiling:1700 feet AGL
Clouds: overcast cloud deck at 1700 feet AGL
QC Flag:automated observation with no human augmentation